Somerset, New Jersey
Current Conditions -  °F | °C
As of 5:53 PM on Friday 19 Dec 2014 (Local Time) from KSMQ Reporting Station
Overcast Overcast  
Wind Chill: 24°   Ceiling: 3200
Heat Index: 33°   Visibility: 10mi
Dew Point: 20°   Wind: 12mph
Humidity: 59%   Direction: 330°NNW
Pressure: 30.13"   Gusts: NA
Location:  40.5°N, 74.52°W
Report Text: KSMQ 192253Z AUTO 33010KT 10SM OVC032 01/M07 A3013 RMK AO2 SLP205 T00061067
Loading
Personal Weather Stations






























Interactive Weather Map New forecast layout! Learn more

10-Day Weather Forecast

Advertisements
Track Severe Weather on mobile